Time;durP1;ratioP1;P1;durP2;ratioP2;P2;SDS_P1;SDS_P2;PMS_P1;PMS_P2;Temp;Humidity;BMP_temperature;BMP_pressure;BME280_temperature;BME280_humidity;BME280_pressure;Samples;Min_cycle;Max_cycle;Signal;HPM_P1;HPM_P2
2023/03/29 00:01:02;;;;;;;2.08;1.60;;;22.20;99.90;;;;;;4995009;28;20223;-81
2023/03/29 00:03:33;;;;;;;1.75;1.60;;;22.30;99.90;;;;;;4995013;28;20203;-79
2023/03/29 00:06:06;;;;;;;1.50;1.40;;;22.30;99.90;;;;;;4994679;28;20215;-78
2023/03/29 00:08:38;;;;;;;1.67;1.50;;;22.30;99.90;;;;;;4994706;28;20199;-78
2023/03/29 00:11:09;;;;;;;1.80;1.50;;;22.40;99.90;;;;;;4994674;28;20223;-78
2023/03/29 00:13:40;;;;;;;1.75;1.55;;;22.40;99.90;;;;;;4994604;28;20203;-80
2023/03/29 00:16:14;;;;;;;1.73;1.40;;;22.50;99.90;;;;;;4994411;28;20199;-78
2023/03/29 00:18:45;;;;;;;1.50;1.30;;;22.50;99.90;;;;;;4994583;28;20195;-77
2023/03/29 00:21:16;;;;;;;2.13;1.45;;;22.60;99.90;;;;;;4994490;28;20194;-78
2023/03/29 00:23:47;;;;;;;2.15;1.40;;;22.60;99.90;;;;;;4994400;28;20195;-78
2023/03/29 00:26:18;;;;;;;1.50;1.40;;;22.60;99.90;;;;;;4994098;28;20196;-78
2023/03/29 00:28:49;;;;;;;2.42;1.40;;;22.50;99.90;;;;;;4994639;28;20198;-78
2023/03/29 00:31:22;;;;;;;3.05;1.58;;;22.50;99.90;;;;;;4994530;28;20203;-80
2023/03/29 00:33:53;;;;;;;1.42;1.33;;;22.50;99.90;;;;;;4994304;28;20191;-77
2023/03/29 00:36:24;;;;;;;1.98;1.40;;;22.50;99.90;;;;;;4994433;28;20207;-79
2023/03/29 00:38:57;;;;;;;1.75;1.30;;;22.50;99.90;;;;;;4994535;28;20203;-78
2023/03/29 00:41:28;;;;;;;1.60;1.50;;;22.60;99.90;;;;;;5001621;28;20195;-78
2023/03/29 00:44:01;;;;;;;1.95;1.48;;;22.60;99.90;;;;;;5013988;28;20202;-78
2023/03/29 00:46:35;;;;;;;3.08;1.60;;;22.80;99.90;;;;;;5013488;28;20214;-77
2023/03/29 00:49:11;;;;;;;3.33;1.60;;;22.80;99.90;;;;;;5013971;28;20195;-78
2023/03/29 00:51:44;;;;;;;1.98;1.60;;;22.90;99.90;;;;;;5013916;28;20242;-77
2023/03/29 00:54:18;;;;;;;3.88;1.35;;;22.90;99.90;;;;;;5013584;28;20195;-78
2023/03/29 00:56:52;;;;;;;1.40;1.30;;;22.90;99.90;;;;;;5013644;28;20194;-77
2023/03/29 00:59:26;;;;;;;2.03;1.38;;;22.80;99.90;;;;;;5013322;28;20198;-77
2023/03/29 01:02:02;;;;;;;1.85;1.55;;;22.80;99.90;;;;;;5013227;28;20246;-76
2023/03/29 01:04:41;;;;;;;2.58;1.70;;;22.90;99.90;;;;;;5013572;28;20198;-77
2023/03/29 01:07:17;;;;;;;1.50;1.40;;;22.90;99.90;;;;;;5013451;28;20219;-81
2023/03/29 01:09:54;;;;;;;2.88;1.50;;;23.00;99.90;;;;;;5013507;28;20197;-76
2023/03/29 01:12:31;;;;;;;2.53;1.55;;;23.20;99.90;;;;;;5013757;28;20198;-76
2023/03/29 01:15:06;;;;;;;2.45;1.58;;;23.30;99.90;;;;;;5013365;28;20187;-77
2023/03/29 01:17:40;;;;;;;2.05;1.50;;;23.40;99.90;;;;;;5013584;28;20190;-77
2023/03/29 01:20:18;;;;;;;3.75;1.60;;;23.40;99.90;;;;;;5013450;28;20195;-78
2023/03/29 01:23:05;;;;;;;3.42;1.20;;;23.50;99.90;;;;;;5013286;28;20194;-77
2023/03/29 01:25:42;;;;;;;4.13;1.30;;;23.60;99.90;;;;;;5013360;28;20195;-78
2023/03/29 01:28:17;;;;;;;1.50;1.40;;;23.60;99.90;;;;;;5013014;28;20245;-76
2023/03/29 01:30:53;;;;;;;3.65;1.40;;;23.80;99.90;;;;;;5013362;28;20201;-78
2023/03/29 01:33:26;;;;;;;2.38;1.30;;;24.10;99.90;;;;;;5013524;28;20187;-77
2023/03/29 01:36:03;;;;;;;2.40;1.20;;;24.50;99.90;;;;;;5014252;28;20202;-78
2023/03/29 01:38:41;;;;;;;1.80;1.20;;;24.90;99.90;;;;;;5017128;28;20197;-77
2023/03/29 01:41:13;;;;;;;1.77;1.10;;;25.30;99.90;;;;;;5017136;28;20541;-77
2023/03/29 01:43:50;;;;;;;2.13;1.10;;;25.60;99.90;;;;;;5017048;28;20191;-77
2023/03/29 01:46:31;;;;;;;2.22;1.02;;;25.80;99.90;;;;;;5016979;28;20641;-76
2023/03/29 01:49:05;;;;;;;2.05;0.98;;;26.00;99.90;;;;;;5016998;28;20215;-75
2023/03/29 01:51:41;;;;;;;1.75;0.70;;;26.30;99.90;;;;;;5016958;28;20691;-81
2023/03/29 01:54:18;;;;;;;4.68;0.95;;;26.60;99.90;;;;;;5017099;28;20245;-77
2023/03/29 01:56:52;;;;;;;1.73;0.80;;;26.70;99.90;;;;;;5016950;28;20237;-77
2023/03/29 01:59:27;;;;;;;0.95;0.73;;;26.70;99.90;;;;;;5016771;28;20562;-78
2023/03/29 02:02:00;;;;;;;2.05;1.08;;;26.70;99.90;;;;;;5029978;22;20226;-79
2023/03/29 02:04:34;;;;;;;1.17;1.00;;;26.70;99.90;;;;;;5028718;28;20293;-76
2023/03/29 02:07:08;;;;;;;1.80;1.00;;;26.60;99.90;;;;;;5036361;28;20210;-77
2023/03/29 02:09:40;;;;;;;1.25;1.00;;;26.40;99.90;;;;;;5036376;28;20193;-77
2023/03/29 02:12:13;;;;;;;1.58;1.00;;;26.20;99.90;;;;;;5036099;28;20664;-78
2023/03/29 02:14:46;;;;;;;1.13;1.00;;;26.00;99.90;;;;;;5036243;28;20197;-79
2023/03/29 02:17:21;;;;;;;1.20;1.05;;;25.70;99.90;;;;;;5036244;28;20194;-78
2023/03/29 02:19:56;;;;;;;1.98;1.15;;;25.60;99.90;;;;;;5036212;28;20190;-80
2023/03/29 02:22:32;;;;;;;2.22;1.30;;;25.40;99.90;;;;;;5036098;28;20190;-83
2023/03/29 02:25:05;;;;;;;1.73;1.20;;;25.30;99.90;;;;;;5032921;28;20201;-81
2023/03/29 02:27:36;;;;;;;1.95;1.27;;;25.20;99.90;;;;;;5031303;28;20214;-80
2023/03/29 02:30:11;;;;;;;1.30;1.20;;;25.20;99.90;;;;;;5032410;28;20281;-79
2023/03/29 02:32:54;;;;;;;2.38;1.40;;;25.20;99.90;;;;;;5033972;28;20202;-78
2023/03/29 02:35:33;;;;;;;1.40;1.20;;;25.00;99.90;;;;;;5030193;28;20194;-77
2023/03/29 02:38:06;;;;;;;2.38;1.30;;;25.10;99.90;;;;;;5035864;28;20268;-78
2023/03/29 02:40:38;;;;;;;6.10;2.10;;;25.00;99.90;;;;;;5032551;28;20197;-77
2023/03/29 02:43:11;;;;;;;2.03;1.35;;;25.00;99.90;;;;;;5036038;28;20186;-78
2023/03/29 02:45:46;;;;;;;4.30;2.08;;;25.00;99.90;;;;;;5035393;28;20190;-77
2023/03/29 02:48:21;;;;;;;1.77;1.50;;;25.00;99.90;;;;;;5034908;28;20688;-76
2023/03/29 02:50:55;;;;;;;1.90;1.30;;;25.00;99.90;;;;;;5033114;28;20206;-77
2023/03/29 02:53:30;;;;;;;3.35;1.25;;;25.10;99.90;;;;;;5016289;28;20191;-77
2023/03/29 02:56:02;;;;;;;2.08;1.55;;;25.40;99.90;;;;;;5032459;28;20569;-78
2023/03/29 02:58:35;;;;;;;2.95;1.50;;;25.60;99.90;;;;;;5034899;28;20198;-78
2023/03/29 03:01:10;;;;;;;1.50;1.40;;;25.70;99.90;;;;;;5032754;28;20238;-77
2023/03/29 03:03:41;;;;;;;4.13;1.70;;;25.60;99.90;;;;;;5033650;28;20198;-79
2023/03/29 03:06:13;;;;;;;2.13;1.35;;;25.70;99.90;;;;;;5028180;28;20202;-77
2023/03/29 03:08:44;;;;;;;2.53;1.60;;;25.80;99.90;;;;;;5018898;28;20250;-77
2023/03/29 03:11:16;;;;;;;1.60;1.45;;;25.90;99.90;;;;;;5031804;28;20194;-78
2023/03/29 03:13:47;;;;;;;2.03;1.30;;;26.10;99.90;;;;;;5024562;28;20198;-78
2023/03/29 03:16:20;;;;;;;1.45;1.30;;;26.10;99.90;;;;;;5035354;28;20626;-80
2023/03/29 03:18:52;;;;;;;1.48;1.10;;;26.20;99.90;;;;;;5032496;28;20198;-79
2023/03/29 03:21:24;;;;;;;2.75;1.50;;;26.10;99.90;;;;;;5028368;28;20661;-84
2023/03/29 03:23:55;;;;;;;3.35;1.60;;;25.90;99.90;;;;;;5033935;28;20213;-78
2023/03/29 03:26:28;;;;;;;1.90;1.60;;;25.80;99.90;;;;;;5033775;28;20278;-77
2023/03/29 03:29:00;;;;;;;1.95;1.35;;;25.60;99.90;;;;;;5029332;28;20307;-79
2023/03/29 03:31:34;;;;;;;1.65;1.25;;;25.50;99.90;;;;;;5022772;28;20199;-76
2023/03/29 03:34:05;;;;;;;1.60;1.50;;;25.40;99.90;;;;;;5034156;28;20202;-77
2023/03/29 03:36:36;;;;;;;2.13;1.40;;;25.30;99.90;;;;;;5032546;28;20198;-78
2023/03/29 03:39:08;;;;;;;2.58;1.40;;;25.30;99.90;;;;;;5033482;28;20194;-77
2023/03/29 03:41:39;;;;;;;1.50;1.30;;;25.30;99.90;;;;;;5033961;28;20241;-76
2023/03/29 03:44:10;;;;;;;1.45;1.20;;;25.20;99.90;;;;;;5033920;28;20202;-82
2023/03/29 03:46:43;;;;;;;3.78;1.40;;;25.20;99.90;;;;;;5034584;28;20195;-75
2023/03/29 03:49:15;;;;;;;3.15;1.10;;;25.10;99.90;;;;;;5034361;28;20595;-76
2023/03/29 03:51:46;;;;;;;3.22;1.10;;;25.10;99.90;;;;;;5032829;28;20198;-76
2023/03/29 03:54:17;;;;;;;2.78;1.20;;;25.20;99.90;;;;;;5033936;28;20198;-74
2023/03/29 03:56:49;;;;;;;2.58;1.20;;;25.30;99.90;;;;;;5033081;28;20187;-75
2023/03/29 03:59:21;;;;;;;1.20;1.10;;;25.40;99.90;;;;;;5033622;28;20641;-75
2023/03/29 04:01:54;;;;;;;2.00;1.40;;;25.40;99.90;;;;;;5032971;28;20635;-74
2023/03/29 04:04:25;;;;;;;1.42;1.25;;;25.50;99.90;;;;;;5032185;28;20532;-74
2023/03/29 04:07:01;;;;;;;2.97;1.27;;;25.70;99.90;;;;;;5031135;28;20209;-74
2023/03/29 04:09:32;;;;;;;4.45;1.00;;;25.90;99.90;;;;;;5014240;28;20222;-75
2023/03/29 04:12:04;;;;;;;2.60;0.90;;;25.90;99.90;;;;;;5018559;28;20202;-75
2023/03/29 04:14:35;;;;;;;0.65;0.60;;;25.80;99.90;;;;;;5032001;28;20202;-74
2023/03/29 04:17:08;;;;;;;0.60;0.60;;;25.80;99.90;;;;;;5014169;28;20191;-77
2023/03/29 04:19:39;;;;;;;0.57;0.50;;;25.80;99.90;;;;;;5014527;28;20201;-77
2023/03/29 04:22:10;;;;;;;0.80;0.50;;;25.90;99.90;;;;;;5028453;28;20190;-78
2023/03/29 04:24:41;;;;;;;0.88;0.60;;;26.00;99.90;;;;;;5022563;28;20205;-77
2023/03/29 04:27:13;;;;;;;0.70;0.70;;;26.10;99.90;;;;;;5032636;28;20216;-79
2023/03/29 04:29:45;;;;;;;0.82;0.60;;;26.10;99.90;;;;;;5030844;28;20218;-79
2023/03/29 04:32:18;;;;;;;0.95;0.60;;;26.30;99.90;;;;;;5026808;28;20205;-78
2023/03/29 04:34:49;;;;;;;2.00;0.60;;;26.30;99.90;;;;;;5018393;28;20195;-78
2023/03/29 04:37:20;;;;;;;0.70;0.70;;;26.40;99.90;;;;;;5028828;28;20203;-77
2023/03/29 04:39:53;;;;;;;1.42;0.80;;;26.50;99.90;;;;;;5033763;28;20209;-79
2023/03/29 04:42:24;;;;;;;1.25;0.75;;;26.50;99.90;;;;;;5032472;28;20573;-78
2023/03/29 04:44:56;;;;;;;0.57;0.57;;;26.60;99.90;;;;;;5030917;28;20190;-76
2023/03/29 04:47:30;;;;;;;0.82;0.70;;;26.50;99.90;;;;;;5024155;28;20277;-77
2023/03/29 04:50:01;;;;;;;1.52;0.77;;;26.60;99.90;;;;;;5024269;28;20217;-77
2023/03/29 04:52:32;;;;;;;1.15;0.60;;;26.60;99.90;;;;;;5029931;28;20725;-78
2023/03/29 04:55:05;;;;;;;1.60;0.60;;;26.60;99.90;;;;;;5026997;28;20199;-75
2023/03/29 04:57:36;;;;;;;1.23;0.60;;;26.60;99.90;;;;;;5027983;28;20577;-77
2023/03/29 05:00:13;;;;;;;2.50;0.70;;;26.60;99.90;;;;;;5029423;28;20233;-77
2023/03/29 05:02:48;;;;;;;2.25;0.60;;;26.70;99.90;;;;;;5027974;28;20190;-75
2023/03/29 05:05:20;;;;;;;0.77;0.70;;;26.60;99.90;;;;;;5033055;28;20190;-77
2023/03/29 05:07:51;;;;;;;1.08;0.70;;;26.70;99.90;;;;;;5031319;28;20198;-75
2023/03/29 05:10:22;;;;;;;1.00;0.70;;;26.80;99.90;;;;;;5032069;28;20292;-74
2023/03/29 05:12:53;;;;;;;1.73;0.70;;;26.80;99.90;;;;;;5032245;28;20566;-73
2023/03/29 05:15:25;;;;;;;0.95;0.70;;;26.80;99.90;;;;;;5029906;28;20202;-73
2023/03/29 05:17:58;;;;;;;0.63;0.55;;;26.90;99.90;;;;;;5033560;28;20229;-74
2023/03/29 05:20:30;;;;;;;0.50;0.50;;;26.90;99.90;;;;;;5030715;28;20194;-74
2023/03/29 05:23:01;;;;;;;0.70;0.60;;;26.90;99.90;;;;;;5032946;28;20652;-73
2023/03/29 05:25:33;;;;;;;0.50;0.50;;;27.00;99.90;;;;;;5028631;28;20364;-73
2023/03/29 05:28:04;;;;;;;0.70;0.60;;;27.10;99.90;;;;;;5024807;28;20214;-74
2023/03/29 05:30:35;;;;;;;2.72;0.77;;;27.20;99.90;;;;;;5022029;28;20677;-74
2023/03/29 05:33:09;;;;;;;2.40;0.60;;;27.20;99.90;;;;;;5013341;28;20241;-74
2023/03/29 05:35:40;;;;;;;0.52;0.40;;;27.10;99.90;;;;;;5023802;28;20198;-74
2023/03/29 05:38:12;;;;;;;1.45;0.52;;;27.00;99.90;;;;;;5033078;28;20209;-73
2023/03/29 05:40:43;;;;;;;2.58;0.60;;;26.80;99.90;;;;;;5029630;28;20201;-73
2023/03/29 05:43:14;;;;;;;1.10;0.50;;;26.70;99.90;;;;;;5032922;28;20202;-74
2023/03/29 05:45:45;;;;;;;1.33;0.40;;;26.60;99.90;;;;;;5016813;28;20198;-74
2023/03/29 05:48:18;;;;;;;0.80;0.60;;;26.50;99.90;;;;;;5030404;28;20221;-73
2023/03/29 05:50:51;;;;;;;0.98;0.50;;;26.50;99.90;;;;;;5029107;28;20649;-74
2023/03/29 05:53:22;;;;;;;0.77;0.60;;;26.40;99.90;;;;;;5026582;28;20194;-73
2023/03/29 05:55:53;;;;;;;2.97;0.55;;;26.40;99.90;;;;;;5031295;28;20206;-74
2023/03/29 05:58:25;;;;;;;0.50;0.50;;;26.50;99.90;;;;;;5024040;28;20763;-73
2023/03/29 06:00:56;;;;;;;1.45;0.50;;;26.60;99.90;;;;;;5030789;28;20234;-73
2023/03/29 06:03:29;;;;;;;0.30;0.20;;;26.90;99.90;;;;;;5030386;28;20201;-74
2023/03/29 06:06:01;;;;;;;0.73;0.40;;;27.10;99.90;;;;;;5025669;28;20281;-74
2023/03/29 06:08:33;;;;;;;1.27;0.40;;;27.30;99.90;;;;;;5027501;28;20217;-75
2023/03/29 06:11:07;;;;;;;0.30;0.30;;;27.30;99.90;;;;;;5024470;28;20707;-75
2023/03/29 06:13:38;;;;;;;0.38;0.30;;;27.40;99.90;;;;;;5032301;28;20289;-73
2023/03/29 06:16:12;;;;;;;2.05;0.40;;;27.50;99.90;;;;;;5029561;28;20231;-75
2023/03/29 06:18:45;;;;;;;0.90;0.38;;;27.60;99.90;;;;;;5032774;28;20194;-75
2023/03/29 06:21:16;;;;;;;1.73;0.40;;;27.60;99.90;;;;;;5029294;28;20199;-76
2023/03/29 06:23:47;;;;;;;1.17;0.30;;;27.60;99.90;;;;;;5034479;28;20637;-77
2023/03/29 06:26:19;;;;;;;1.25;0.30;;;27.40;99.90;;;;;;5033861;28;20201;-75
2023/03/29 06:28:50;;;;;;;0.22;0.22;;;27.30;99.90;;;;;;5025092;28;20222;-76
2023/03/29 06:31:21;;;;;;;1.77;0.45;;;27.20;99.90;;;;;;5035951;28;20210;-75
2023/03/29 06:33:56;;;;;;;0.52;0.22;;;27.00;99.90;;;;;;5036148;28;20603;-76
2023/03/29 06:36:27;;;;;;;5.85;0.40;;;27.00;99.90;;;;;;5032998;28;20649;-77
2023/03/29 06:38:58;;;;;;;0.77;0.30;;;26.90;99.90;;;;;;5035957;28;20198;-74
2023/03/29 06:41:30;;;;;;;2.22;0.25;;;26.70;99.90;;;;;;5032389;28;20727;-74
2023/03/29 06:44:02;;;;;;;3.58;0.40;;;26.60;99.90;;;;;;5036070;28;20194;-76
2023/03/29 06:46:34;;;;;;;0.28;0.20;;;26.40;99.90;;;;;;5033355;28;20199;-74
2023/03/29 06:49:07;;;;;;;0.50;0.30;;;26.40;99.90;;;;;;5034456;28;20218;-73
2023/03/29 06:51:39;;;;;;;0.55;0.40;;;26.40;99.90;;;;;;5035603;28;20194;-75
2023/03/29 06:54:10;;;;;;;2.20;0.60;;;26.30;99.90;;;;;;5033049;28;20545;-74
2023/03/29 06:56:42;;;;;;;0.95;0.20;;;26.10;99.90;;;;;;5035989;28;20190;-74
2023/03/29 06:59:13;;;;;;;0.55;0.40;;;26.00;99.90;;;;;;5032547;28;20715;-74
2023/03/29 07:01:44;;;;;;;4.03;0.30;;;25.90;99.90;;;;;;5035103;28;20252;-74
2023/03/29 07:04:17;;;;;;;0.25;0.20;;;25.70;99.90;;;;;;5033500;28;20199;-75
2023/03/29 07:06:57;;;;;;;0.40;0.30;;;25.60;99.90;;;;;;5035315;28;20202;-74
2023/03/29 07:09:28;;;;;;;0.20;0.20;;;25.40;99.90;;;;;;5034514;28;20308;-73
2023/03/29 07:11:59;;;;;;;0.50;0.50;;;25.30;99.90;;;;;;5029929;28;20202;-73
2023/03/29 07:14:31;;;;;;;0.35;0.32;;;25.30;99.90;;;;;;5035581;28;20198;-74
2023/03/29 07:17:03;;;;;;;0.40;0.40;;;25.20;99.90;;;;;;5029558;28;20206;-74
2023/03/29 07:19:36;;;;;;;1.73;0.77;;;25.10;99.90;;;;;;5035317;28;20689;-75
2023/03/29 07:22:07;;;;;;;0.52;0.30;;;25.10;99.90;;;;;;5031719;28;20595;-74
2023/03/29 07:24:38;;;;;;;0.77;0.50;;;25.00;99.90;;;;;;5035074;28;20190;-74
2023/03/29 07:27:09;;;;;;;0.95;0.50;;;25.00;99.90;;;;;;5033593;28;20190;-74
2023/03/29 07:29:40;;;;;;;0.40;0.40;;;24.90;99.90;;;;;;5026283;28;20682;-73
2023/03/29 07:32:11;;;;;;;2.10;0.43;;;24.80;99.90;;;;;;5023890;28;20195;-74
2023/03/29 07:34:45;;;;;;;1.40;0.50;;;24.80;99.90;;;;;;5021208;28;20203;-74
2023/03/29 07:37:16;;;;;;;0.85;0.40;;;24.70;99.90;;;;;;5025476;28;20194;-76
2023/03/29 07:39:47;;;;;;;1.35;0.40;;;24.60;99.90;;;;;;5034406;28;20198;-75
2023/03/29 07:42:18;;;;;;;0.75;0.40;;;24.60;99.90;;;;;;5030885;28;20202;-75
2023/03/29 07:44:49;;;;;;;1.45;0.40;;;24.50;99.90;;;;;;5028884;28;20285;-73
2023/03/29 07:47:20;;;;;;;0.88;0.40;;;24.50;99.90;;;;;;5027359;28;20572;-73
2023/03/29 07:49:53;;;;;;;0.68;0.50;;;24.40;99.90;;;;;;5030719;28;20210;-73
2023/03/29 07:52:26;;;;;;;0.82;0.50;;;24.30;99.90;;;;;;5033861;28;20198;-76
2023/03/29 07:54:57;;;;;;;1.80;0.57;;;24.30;99.90;;;;;;5028368;28;20200;-75
2023/03/29 08:00:14;;;;;;;0.52;0.50;;;24.10;99.90;;;;;;5027604;22;20245;-73
2023/03/29 08:02:51;;;;;;;0.90;0.60;;;24.00;99.90;;;;;;5025938;28;20197;-74
2023/03/29 08:05:24;;;;;;;0.65;0.60;;;24.00;99.90;;;;;;5029246;28;20233;-73
2023/03/29 08:07:56;;;;;;;1.00;0.80;;;23.90;99.90;;;;;;5031385;28;20200;-73
2023/03/29 08:10:27;;;;;;;1.23;0.70;;;23.90;99.90;;;;;;5033626;28;20218;-73
2023/03/29 08:12:59;;;;;;;3.00;0.70;;;23.70;99.90;;;;;;5028322;28;20211;-73
2023/03/29 08:15:30;;;;;;;1.13;0.70;;;23.70;99.90;;;;;;5031602;28;20195;-74
2023/03/29 08:18:01;;;;;;;1.52;0.80;;;23.60;99.90;;;;;;5028605;28;20198;-73
2023/03/29 08:20:34;;;;;;;1.95;0.73;;;23.50;99.90;;;;;;5027606;28;20206;-73
2023/03/29 08:23:05;;;;;;;0.68;0.60;;;23.40;99.90;;;;;;5027722;28;20198;-73
2023/03/29 08:25:36;;;;;;;1.40;0.70;;;23.30;99.90;;;;;;5033489;28;20194;-73
2023/03/29 08:28:07;;;;;;;1.13;0.63;;;23.30;99.90;;;;;;5030030;28;20202;-73
2023/03/29 08:30:38;;;;;;;0.70;0.60;;;23.20;99.90;;;;;;5027041;28;20230;-73
2023/03/29 08:33:10;;;;;;;2.03;0.93;;;23.10;99.90;;;;;;5031760;28;20194;-73
2023/03/29 08:35:43;;;;;;;3.75;1.10;;;23.10;99.90;;;;;;5028154;28;20194;-74
2023/03/29 08:38:14;;;;;;;1.15;0.70;;;23.00;99.90;;;;;;5030005;28;20194;-73
2023/03/29 08:40:49;;;;;;;1.48;0.70;;;23.00;99.90;;;;;;5020333;28;20229;-73
2023/03/29 08:43:51;;;;;;;0.93;0.80;;;22.90;99.90;;;;;;5030211;28;20194;-73
2023/03/29 08:46:33;;;;;;;0.93;0.77;;;22.90;99.90;;;;;;5031789;28;20703;-73
2023/03/29 08:49:07;;;;;;;1.50;0.88;;;22.90;99.90;;;;;;5029953;28;20191;-73
2023/03/29 08:51:42;;;;;;;0.80;0.80;;;22.80;99.90;;;;;;5028757;28;20556;-74
2023/03/29 08:54:18;;;;;;;1.10;0.63;;;22.70;99.90;;;;;;5024662;28;20198;-73
2023/03/29 08:56:50;;;;;;;1.58;0.80;;;22.70;99.90;;;;;;5030489;28;20201;-74
2023/03/29 08:59:24;;;;;;;0.95;0.68;;;22.60;99.90;;;;;;5030414;28;20237;-74
2023/03/29 09:01:58;;;;;;;0.90;0.75;;;22.60;99.90;;;;;;5004729;28;20564;-73
2023/03/29 09:04:31;;;;;;;1.95;0.70;;;22.50;99.90;;;;;;5028954;28;20668;-73
2023/03/29 09:07:05;;;;;;;1.55;0.77;;;22.50;99.90;;;;;;5018369;28;20226;-74
2023/03/29 09:09:37;;;;;;;1.08;0.80;;;22.50;99.90;;;;;;5016803;28;20303;-74
2023/03/29 09:12:21;;;;;;;1.40;0.80;;;22.50;99.90;;;;;;5014832;28;20203;-74
2023/03/29 09:15:05;;;;;;;2.08;1.10;;;22.50;99.90;;;;;;5020748;28;20201;-74
2023/03/29 09:17:44;;;;;;;1.48;1.00;;;22.50;99.90;;;;;;5026422;28;20230;-73
2023/03/29 09:20:25;;;;;;;1.33;0.98;;;22.50;99.90;;;;;;5006439;28;20200;-73
2023/03/29 09:23:09;;;;;;;1.30;0.82;;;22.60;99.90;;;;;;5009322;28;20567;-74
2023/03/29 09:25:53;;;;;;;1.40;0.80;;;22.60;99.90;;;;;;5015662;28;20237;-74
2023/03/29 09:28:32;;;;;;;1.00;0.90;;;22.60;99.90;;;;;;5024580;28;20252;-74
2023/03/29 09:31:07;;;;;;;1.75;0.95;;;22.60;99.90;;;;;;5002831;28;20234;-74
2023/03/29 09:33:43;;;;;;;2.17;1.10;;;22.60;99.90;;;;;;5013125;28;20194;-74
2023/03/29 09:36:18;;;;;;;0.80;0.80;;;22.50;99.90;;;;;;5015416;28;20688;-73
2023/03/29 09:38:53;;;;;;;2.00;0.90;;;22.50;99.90;;;;;;5008041;28;20203;-74
2023/03/29 09:41:31;;;;;;;2.05;0.80;;;22.50;99.90;;;;;;5010824;28;20692;-73
2023/03/29 09:44:07;;;;;;;1.50;0.98;;;22.50;99.90;;;;;;5010122;28;20649;-73
2023/03/29 09:46:42;;;;;;;1.60;1.00;;;22.50;99.90;;;;;;5007687;28;20191;-75
2023/03/29 09:49:17;;;;;;;1.63;0.90;;;22.40;99.90;;;;;;5012210;28;20198;-73
2023/03/29 09:51:51;;;;;;;1.58;0.73;;;22.40;99.90;;;;;;5010319;28;20206;-74
2023/03/29 09:54:24;;;;;;;1.00;0.80;;;22.30;99.90;;;;;;5009038;28;20268;-74
2023/03/29 09:56:56;;;;;;;2.58;0.70;;;22.30;99.90;;;;;;5008033;28;20198;-73
2023/03/29 09:59:27;;;;;;;1.17;0.90;;;22.20;99.90;;;;;;5007932;28;20227;-74
2023/03/29 10:02:08;;;;;;;0.63;0.63;;;22.20;99.90;;;;;;5012956;28;20202;-74
2023/03/29 10:04:40;;;;;;;1.88;0.80;;;22.20;99.90;;;;;;5016829;28;20191;-74
2023/03/29 10:07:17;;;;;;;1.55;0.70;;;22.20;99.90;;;;;;5012759;28;20301;-77
2023/03/29 10:09:53;;;;;;;0.60;0.60;;;22.20;99.90;;;;;;5014767;28;20277;-76
2023/03/29 10:12:25;;;;;;;1.48;0.70;;;22.20;99.90;;;;;;5016674;28;20210;-77
2023/03/29 10:14:57;;;;;;;0.70;0.70;;;22.20;99.90;;;;;;5012592;28;20203;-77
2023/03/29 10:17:32;;;;;;;0.93;0.68;;;22.10;99.90;;;;;;5001538;28;20533;-78
2023/03/29 10:20:05;;;;;;;0.93;0.77;;;22.10;99.90;;;;;;5006240;28;20198;-76
2023/03/29 10:22:39;;;;;;;1.13;0.80;;;22.10;99.90;;;;;;5012323;28;20221;-75
2023/03/29 10:25:16;;;;;;;2.67;0.80;;;22.10;99.90;;;;;;5011227;28;20203;-76
2023/03/29 10:27:49;;;;;;;0.68;0.68;;;22.10;99.90;;;;;;5016435;28;20191;-75
2023/03/29 10:30:27;;;;;;;2.15;0.80;;;22.10;99.90;;;;;;5013910;28;20223;-76
2023/03/29 10:33:01;;;;;;;0.98;0.60;;;22.10;99.90;;;;;;5014164;28;20198;-80
2023/03/29 10:35:35;;;;;;;0.50;0.50;;;22.10;99.90;;;;;;5013488;28;20630;-79
2023/03/29 10:38:11;;;;;;;0.50;0.50;;;22.10;99.90;;;;;;5009496;28;20203;-77
2023/03/29 10:40:47;;;;;;;1.45;0.47;;;22.10;99.90;;;;;;5004229;28;20199;-76
2023/03/29 10:43:25;;;;;;;0.50;0.40;;;22.10;99.90;;;;;;4999449;28;20594;-76
2023/03/29 10:45:58;;;;;;;0.70;0.47;;;22.10;99.90;;;;;;4996862;28;20196;-77
2023/03/29 10:48:32;;;;;;;0.50;0.50;;;22.10;99.90;;;;;;4998068;28;20199;-76
2023/03/29 10:51:06;;;;;;;0.45;0.45;;;22.20;99.90;;;;;;5011764;28;20223;-78
2023/03/29 10:53:39;;;;;;;1.20;0.40;;;22.20;99.90;;;;;;5004961;28;20619;-76
2023/03/29 10:56:31;;;;;;;1.23;0.60;;;22.20;99.90;;;;;;5009339;28;20262;-76
2023/03/29 10:59:28;;;;;;;0.47;0.40;;;22.20;99.90;;;;;;4996158;28;20600;-76
2023/03/29 11:02:29;;;;;;;0.40;0.40;;;22.10;99.90;;;;;;5010267;28;20206;-76
2023/03/29 11:05:11;;;;;;;0.52;0.47;;;22.10;99.90;;;;;;4996055;28;20671;-77
2023/03/29 11:07:50;;;;;;;0.40;0.40;;;22.10;99.90;;;;;;5008861;28;20793;-76
2023/03/29 11:10:35;;;;;;;2.40;0.60;;;22.10;99.90;;;;;;5015058;28;20305;-76
2023/03/29 11:13:16;;;;;;;0.80;0.70;;;22.00;99.90;;;;;;5006650;28;20196;-77
2023/03/29 11:16:00;;;;;;;2.08;0.52;;;22.00;99.90;;;;;;4995921;28;20214;-76
2023/03/29 11:18:55;;;;;;;1.52;0.57;;;22.00;99.90;;;;;;5004481;28;20191;-77
2023/03/29 11:21:33;;;;;;;0.63;0.50;;;21.90;99.90;;;;;;5015428;28;20206;-76
2023/03/29 11:24:26;;;;;;;0.55;0.55;;;21.90;99.90;;;;;;5011850;28;20199;-76
2023/03/29 11:27:21;;;;;;;0.55;0.50;;;21.90;99.90;;;;;;5015269;28;20198;-76
2023/03/29 11:30:05;;;;;;;0.68;0.50;;;21.90;99.90;;;;;;5010715;28;22249;-76
2023/03/29 11:32:45;;;;;;;1.67;0.65;;;21.90;99.90;;;;;;5009002;28;20859;-77
2023/03/29 11:35:33;;;;;;;0.80;0.60;;;21.80;99.90;;;;;;5008866;28;20562;-77
2023/03/29 11:38:12;;;;;;;1.23;0.60;;;21.80;99.90;;;;;;5012122;28;20669;-76
2023/03/29 11:40:53;;;;;;;0.57;0.57;;;21.80;99.90;;;;;;4995555;28;20192;-76
2023/03/29 11:43:30;;;;;;;0.50;0.50;;;21.70;99.90;;;;;;5013474;28;20424;-76
2023/03/29 11:46:10;;;;;;;0.50;0.50;;;21.70;99.90;;;;;;5010563;28;20202;-76
2023/03/29 11:48:46;;;;;;;0.50;0.50;;;21.60;99.90;;;;;;5014331;28;20226;-77
2023/03/29 11:51:22;;;;;;;0.70;0.50;;;21.60;99.90;;;;;;5014622;28;20314;-76
2023/03/29 11:54:03;;;;;;;1.92;0.50;;;21.60;99.90;;;;;;5006602;28;20203;-76
2023/03/29 11:56:41;;;;;;;0.70;0.50;;;21.50;99.90;;;;;;5006972;28;20669;-76
2023/03/29 11:59:18;;;;;;;0.40;0.40;;;21.50;99.90;;;;;;5002561;28;20241;-76
2023/03/29 12:01:56;;;;;;;0.77;0.40;;;21.50;99.90;;;;;;5002165;28;20195;-77
2023/03/29 12:04:31;;;;;;;0.60;0.60;;;21.40;99.90;;;;;;5006801;28;20199;-76
2023/03/29 12:07:13;;;;;;;0.68;0.50;;;21.40;99.90;;;;;;5014407;28;20191;-76
2023/03/29 12:09:49;;;;;;;0.60;0.60;;;21.40;99.90;;;;;;5008387;28;20200;-77
2023/03/29 12:12:24;;;;;;;1.27;0.70;;;21.30;99.90;;;;;;5008907;28;20198;-76
2023/03/29 12:15:02;;;;;;;0.85;0.60;;;21.30;99.90;;;;;;5010232;28;20248;-76
2023/03/29 12:17:41;;;;;;;1.58;0.80;;;21.30;99.90;;;;;;5005723;28;20204;-76
2023/03/29 12:20:19;;;;;;;0.88;0.77;;;21.20;99.90;;;;;;5007598;28;20206;-76
2023/03/29 12:22:51;;;;;;;0.95;0.73;;;21.20;99.90;;;;;;5004045;28;20203;-76
2023/03/29 12:25:26;;;;;;;3.13;1.08;;;21.10;99.90;;;;;;5013705;28;20199;-75
2023/03/29 12:28:13;;;;;;;1.45;0.80;;;21.10;99.90;;;;;;5000717;28;20202;-77
2023/03/29 12:30:55;;;;;;;1.83;1.10;;;21.10;99.90;;;;;;5008595;28;20666;-76
2023/03/29 12:34:05;;;;;;;1.35;0.70;;;21.10;99.90;;;;;;4999040;28;20199;-76
2023/03/29 12:36:59;;;;;;;1.33;0.90;;;21.10;99.90;;;;;;5001643;28;20282;-76
2023/03/29 12:39:32;;;;;;;1.00;0.90;;;21.00;99.90;;;;;;5001017;28;20250;-76
2023/03/29 12:42:15;;;;;;;1.20;0.80;;;20.90;99.90;;;;;;5008857;28;20650;-76
2023/03/29 12:44:50;;;;;;;2.58;0.90;;;20.90;99.90;;;;;;5008469;28;20201;-76
2023/03/29 12:47:24;;;;;;;1.27;0.90;;;20.80;99.90;;;;;;5005998;28;20210;-76
2023/03/29 12:49:59;;;;;;;1.52;0.65;;;20.60;99.90;;;;;;4995551;28;20191;-76
2023/03/29 12:52:33;;;;;;;1.40;0.90;;;20.60;99.90;;;;;;5011914;28;20209;-76
2023/03/29 12:55:07;;;;;;;0.80;0.70;;;20.50;99.90;;;;;;5008267;28;20199;-76
2023/03/29 12:57:43;;;;;;;0.75;0.60;;;20.40;99.90;;;;;;5009363;28;20209;-76
2023/03/29 13:00:24;;;;;;;0.82;0.60;;;20.40;99.90;;;;;;5004346;28;20203;-76
2023/03/29 13:03:04;;;;;;;0.80;0.73;;;20.30;99.90;;;;;;5009518;28;20567;-76
2023/03/29 13:05:40;;;;;;;1.10;0.60;;;20.30;99.90;;;;;;5013394;28;20292;-77
2023/03/29 13:08:24;;;;;;;3.30;0.80;;;20.00;99.90;;;;;;5010232;28;20202;-76
2023/03/29 13:10:57;;;;;;;1.80;0.90;;;20.20;99.90;;;;;;5013492;28;20222;-75
2023/03/29 13:13:32;;;;;;;1.40;0.85;;;20.00;99.90;;;;;;4997153;28;20206;-76
2023/03/29 13:16:17;;;;;;;0.88;0.77;;;19.90;99.90;;;;;;5010652;28;20199;-76
2023/03/29 13:19:25;;;;;;;0.68;0.65;;;19.90;99.90;;;;;;5011586;28;20201;-76
2023/03/29 13:22:09;;;;;;;3.13;1.20;;;19.90;99.90;;;;;;4990620;28;20203;-76
2023/03/29 13:24:53;;;;;;;0.70;0.70;;;19.80;99.90;;;;;;5011069;28;20207;-76
2023/03/29 13:27:36;;;;;;;1.40;0.90;;;19.80;99.90;;;;;;5009716;28;20201;-76
2023/03/29 13:30:24;;;;;;;2.10;0.80;;;19.80;99.90;;;;;;5002019;28;20198;-76